Date,TemperatureHighF,TemperatureAvgF,TemperatureLowF,DewpointHighF,DewpointAvgF,DewpointLowF,HumidityHigh,HumidityAvg,HumidityLow,PressureMaxIn,PressureMinIn,WindSpeedMaxMPH,WindSpeedAvgMPH,GustSpeedMaxMPH,PrecipitationSumIn
2013-1-1,38.3,30.5,15.7,25.6,16.6,3.5,75,57,40,29.86,29.63,8,3,22,0.00
2013-1-2,31.5,19.3,8.3,18.3,7.8,-5.0,75,61,48,30.05,29.83,6,2,17,0.00
2013-1-3,28.5,14.8,1.1,8.8,-0.6,-8.0,75,52,26,30.07,29.92,6,1,18,0.00
2013-1-4,38.5,27.7,14.0,24.3,18.6,8.3,87,69,52,29.92,29.73,6,1,13,0.00
2013-1-5,45.8,32.8,20.8,25.9,19.5,14.8,79,59,35,30.19,29.76,6,2,17,0.00
2013-1-6,44.2,31.8,22.7,28.9,23.8,15.6,89,73,50,30.14,29.87,4,1,10,0.00
2013-1-7,42.3,31.2,22.9,28.3,20.4,14.1,89,66,37,30.33,29.88,5,1,19,0.00
2013-1-8,47.1,32.7,20.8,27.8,23.5,15.9,89,70,45,30.29,30.19,5,1,13,0.00
2013-1-9,41.8,34.0,22.7,33.5,26.3,20.2,92,74,53,30.34,29.92,5,1,17,0.00
2013-1-10,50.1,40.6,30.6,27.8,23.7,21.0,73,52,34,30.47,29.95,8,3,35,0.00
2013-1-11,38.9,32.9,24.7,35.2,26.3,20.9,96,77,59,30.46,30.16,3,0,5,0.00
2013-1-12,41.5,37.8,34.9,40.7,37.1,34.1,98,97,96,30.15,30.05,2,0,7,0.00
2013-1-13,48.9,44.9,39.1,47.5,44.2,38.6,99,98,94,30.07,29.91,3,0,8,0.00
2013-1-14,64.5,50.3,39.5,51.0,41.5,25.2,97,74,41,30.17,29.78,6,2,13,0.00
2013-1-15,46.5,37.8,30.9,27.3,24.2,21.9,76,59,40,30.25,30.16,2,0,8,0.00
2013-1-16,32.7,31.2,28.5,31.1,28.1,22.9,96,89,69,30.18,29.75,0,0,2,0.00
2013-1-17,42.5,32.9,25.6,34.9,26.6,10.8,96,79,49,30.03,29.75,6,1,16,0.00
2013-1-18,28.1,21.4,14.3,12.6,1.4,-6.6,65,42,26,30.38,29.99,8,2,20,0.00
2013-1-19,47.4,34.8,18.9,30.3,20.7,4.7,73,57,39,30.30,29.80,7,2,20,0.00
2013-1-20,54.7,40.1,26.1,31.0,24.9,9.5,73,56,31,29.84,29.45,9,4,27,0.00
2013-1-21,29.8,23.6,17.3,19.6,8.9,1.8,90,55,35,30.02,29.72,6,2,19,0.00
2013-1-22,30.1,19.4,9.7,19.1,8.3,-1.8,91,64,37,30.00,29.69,6,2,18,0.00
2013-1-23,21.0,10.5,3.2,-2.0,-8.1,-14.3,64,44,23,30.07,29.99,7,2,18,0.00
2013-1-24,22.2,11.2,-1.0,-6.8,-10.4,-15.1,66,39,24,30.15,29.99,7,2,24,0.00
2013-1-25,29.0,16.4,5.2,6.8,-7.1,-13.6,59,36,19,30.24,29.99,6,1,21,0.00
2013-1-26,29.4,17.8,9.2,9.5,-0.3,-10.8,84,49,21,30.17,29.94,5,2,20,0.00
2013-1-27,34.6,20.7,11.6,2.6,-0.6,-7.0,63,41,22,30.40,30.15,6,2,16,0.00
2013-1-28,29.5,23.3,17.2,24.1,12.7,-0.1,94,67,34,30.38,29.96,3,0,7,0.00
2013-1-29,33.7,29.1,23.8,30.9,26.4,21.7,96,90,79,30.12,29.95,1,0,3,0.00
2013-1-30,58.4,45.0,31.9,55.8,43.9,30.9,99,96,88,30.08,29.37,8,2,24,0.00
2013-1-31,60.4,47.3,27.9,58.2,38.3,15.2,96,73,37,29.50,28.87,14,6,31,0.06
2013-2-1,37.9,28.2,20.0,17.2,8.4,2.0,65,44,27,30.00,29.51,8,4,18,0.00
2013-2-2,33.7,24.2,14.0,10.1,5.4,1.7,65,45,27,30.18,29.97,7,2,16,0.00
2013-2-3,27.8,24.2,18.4,21.8,18.9,11.0,89,80,54,29.98,29.66,2,0,8,0.00
2013-2-4,34.0,23.5,17.3,19.9,10.8,4.1,89,61,35,29.85,29.64,8,2,21,0.00
2013-2-5,31.6,24.4,18.1,20.5,10.8,4.5,85,57,38,29.96,29.85,3,1,10,0.00
2013-2-6,41.6,29.5,21.9,28.1,17.1,2.7,90,63,37,30.21,29.85,5,2,14,0.00
2013-2-7,33.5,23.9,13.8,5.5,0.2,-7.0,69,37,24,30.46,30.22,5,2,13,0.00
2013-2-8,24.2,21.2,16.5,19.6,16.2,3.6,92,82,41,30.42,29.60,11,4,27,0.00
2013-2-9,22.7,17.5,12.6,20.7,15.1,9.5,92,90,87,30.13,29.55,10,6,29,0.00
2013-2-10,33.1,21.8,6.3,32.6,19.0,2.5,98,89,79,30.32,30.14,5,1,18,0.00
2013-2-11,32.1,26.9,17.7,31.6,24.3,12.6,98,90,76,30.28,29.54,2,0,5,0.00
2013-2-12,46.1,36.1,31.3,38.5,30.3,24.7,99,81,51,29.80,29.53,7,2,22,0.00
2013-2-13,49.5,36.0,26.0,29.0,23.7,21.3,82,62,41,29.79,29.65,4,1,10,0.00
2013-2-14,48.6,36.3,27.3,24.3,21.4,19.2,76,57,33,29.91,29.62,4,1,14,0.00
2013-2-15,52.3,38.6,26.4,32.6,28.3,21.2,94,69,45,29.92,29.81,8,2,17,0.00
2013-2-16,39.8,34.2,28.5,32.4,25.6,15.0,93,72,51,29.88,29.66,5,2,14,0.00
2013-2-17,28.4,20.1,14.9,17.8,11.9,2.8,90,71,46,29.66,29.33,10,6,36,0.00
2013-2-18,35.9,22.8,12.8,6.4,1.3,-4.5,60,41,22,30.08,29.61,8,4,22,0.00
2013-2-19,46.5,35.1,18.8,41.3,22.4,2.3,97,62,32,30.09,29.49,6,2,17,0.00
2013-2-20,39.9,32.2,24.7,38.4,20.0,10.5,97,63,39,29.70,29.46,8,4,20,0.00
2013-2-21,38.5,27.8,22.1,14.6,11.9,8.7,70,53,30,30.11,29.69,8,4,20,0.00
2013-2-22,43.2,31.4,21.3,23.6,18.5,14.3,82,60,36,30.33,30.14,7,2,14,0.00
2013-2-23,37.6,32.9,27.8,31.5,27.2,22.2,96,80,68,30.26,29.86,6,1,10,0.00
2013-2-24,33.8,32.4,30.1,33.0,31.4,28.8,97,96,95,29.85,29.64,5,1,12,0.00
2013-2-25,40.1,33.3,29.0,33.5,30.8,27.7,96,91,75,30.17,29.83,1,0,3,0.00
2013-2-26,41.9,34.7,28.2,38.2,28.6,23.9,97,79,52,30.27,30.10,8,2,12,0.00
2013-2-27,40.1,36.8,34.7,38.9,35.1,28.2,97,93,75,30.10,29.51,16,7,27,0.00
2013-2-28,51.1,38.8,32.2,37.9,34.4,31.4,98,86,58,29.57,29.46,3,0,11,0.00
2013-3-1,42.3,37.7,30.4,34.6,29.3,26.5,95,73,57,29.61,29.46,4,1,12,0.00
2013-3-2,46.8,37.8,29.4,29.9,26.3,24.0,82,64,49,29.60,29.55,4,1,12,0.00
2013-3-3,44.8,35.7,30.6,33.8,27.8,23.8,83,73,56,29.57,29.49,4,1,17,0.00
2013-3-4,42.5,35.1,28.4,26.7,23.1,20.1,78,63,41,29.67,29.51,8,4,25,0.00
2013-3-5,50.4,37.9,29.5,32.1,26.2,21.0,88,64,40,30.00,29.68,5,2,16,0.00
2013-3-6,38.2,35.0,31.9,34.3,32.0,28.6,96,89,73,30.06,29.98,14,7,28,0.00
2013-3-7,33.4,31.1,29.5,31.0,28.6,25.5,95,90,81,30.03,29.94,10,4,21,0.00
2013-3-8,39.1,33.0,29.0,34.7,28.1,23.0,97,83,59,30.10,29.89,5,1,11,0.00
2013-3-9,47.9,36.6,27.9,28.4,22.9,17.8,89,60,34,30.29,30.09,7,2,14,0.00
2013-3-10,45.1,34.3,23.5,30.7,27.7,21.5,93,78,56,30.35,30.24,6,2,10,0.00
2013-3-11,53.2,42.1,32.8,38.9,33.8,29.9,92,74,47,30.25,30.07,5,2,13,0.00
2013-3-12,55.0,48.6,40.8,52.5,46.9,38.9,98,94,80,30.08,29.64,7,3,18,0.00
2013-3-13,59.5,44.6,32.1,50.8,30.1,19.3,97,61,30,29.71,29.63,6,2,13,0.00
2013-3-14,41.1,31.2,21.1,23.4,14.5,5.6,77,51,31,29.76,29.64,8,3,18,0.00
2013-3-15,44.6,30.3,17.5,28.1,11.6,1.2,86,48,20,29.80,29.56,7,2,14,0.00
2013-3-16,43.1,34.3,25.3,25.1,13.1,7.1,76,44,24,29.81,29.58,4,1,14,0.00
2013-3-17,46.2,31.2,20.5,15.5,8.8,0.8,79,42,19,30.25,29.81,7,2,17,0.00
2013-3-18,40.1,28.2,14.0,25.6,7.0,-0.1,91,44,21,30.40,30.18,5,1,16,0.00
2013-3-19,32.8,30.5,25.8,32.3,29.6,24.6,98,96,92,30.18,29.58,10,4,17,0.00
2013-3-20,39.5,30.4,23.3,27.5,22.9,18.7,95,75,53,29.74,29.63,6,1,18,0.00
2013-3-21,39.3,29.7,20.3,26.9,19.8,13.0,91,69,35,29.74,29.54,4,1,10,0.00
2013-3-22,45.5,33.6,25.3,23.7,20.1,17.7,92,59,35,29.66,29.54,5,2,13,0.00
2013-3-23,45.8,34.3,23.0,23.8,19.1,15.4,82,56,31,29.71,29.56,8,3,24,0.00
2013-3-24,52.3,39.0,29.8,26.7,22.2,19.3,78,53,30,29.74,29.66,6,2,17,0.00
2013-3-25,41.5,35.7,29.1,30.8,27.2,21.6,80,71,64,29.70,29.46,10,4,20,0.00
2013-3-26,54.7,41.5,33.4,28.4,23.7,16.1,74,52,25,29.70,29.48,4,2,16,0.00
2013-3-27,61.0,43.4,27.2,31.1,23.7,20.6,82,50,24,29.80,29.67,6,2,18,0.00
2013-3-28,53.9,42.5,34.6,36.3,32.4,27.4,92,70,38,29.95,29.80,7,1,13,0.00
2013-3-29,64.0,46.3,32.4,38.4,31.2,25.7,86,59,29,29.97,29.89,5,2,13,0.00
2013-3-30,62.7,46.7,34.4,32.4,23.8,12.5,82,47,14,30.02,29.93,5,2,13,0.00
2013-3-31,63.4,45.1,26.4,38.6,25.0,17.7,79,50,19,30.05,29.73,9,2,19,0.01
2013-4-1,66.1,47.9,34.6,46.0,35.0,7.3,97,65,28,29.72,29.42,8,3,26,0.00
2013-4-2,44.3,35.1,26.7,15.5,11.3,6.4,54,38,25,29.86,29.69,9,4,20,0.00
2013-4-3,52.0,38.1,27.8,14.8,11.7,5.3,54,36,16,30.08,29.84,8,4,22,0.01
2013-4-4,60.1,43.3,25.3,22.9,15.2,10.0,67,36,14,30.23,29.96,6,2,14,0.00
2013-4-5,45.5,38.3,35.8,28.6,27.2,23.3,71,65,45,29.96,29.79,5,2,12,0.00
2013-4-10,67.3,51.5,44.6,48.0,45.4,40.9,96,81,48,29.95,29.79,6,1,10,0.01
2013-4-11,55.4,46.7,39.8,47.1,37.5,24.0,97,74,37,30.08,29.76,4,1,16,0.00
2013-4-12,40.2,36.7,34.6,35.9,33.2,29.0,96,88,70,30.11,29.75,12,5,20,0.00
2013-4-13,56.6,43.8,34.3,39.4,35.8,33.2,96,76,43,29.86,29.71,6,1,12,0.00
2013-4-14,59.3,46.5,36.0,39.1,31.6,25.0,90,59,28,30.14,29.84,7,2,17,0.00
2013-4-15,60.7,44.6,29.3,37.2,31.2,26.4,90,63,30,30.32,30.15,9,2,14,0.00
2013-4-16,69.3,53.0,37.0,50.1,41.0,33.8,93,67,37,30.33,29.97,12,4,30,0.03
2013-4-17,70.9,58.7,47.6,52.4,36.5,24.3,88,49,20,30.26,29.98,5,2,16,0.00
2013-4-18,62.9,51.4,40.5,42.7,31.4,24.4,72,48,28,30.37,30.07,9,4,22,0.00
2013-4-19,76.3,63.8,51.6,62.0,55.8,43.2,97,77,52,30.07,29.56,10,5,25,0.00
2013-4-20,67.1,54.7,41.9,62.0,40.0,22.2,95,62,33,30.14,29.53,9,3,21,0.02
2013-4-21,56.7,43.8,29.7,28.5,20.4,13.1,75,42,21,30.62,30.16,6,2,17,0.00
2013-4-22,50.4,40.8,30.6,33.3,27.8,18.4,90,63,30,30.70,30.55,13,5,20,0.01
2013-4-23,40.6,38.6,35.6,39.5,35.6,28.8,96,89,74,30.54,30.09,7,3,14,0.01
2013-4-24,77.6,58.4,40.3,51.2,42.8,33.1,96,64,21,30.07,29.70,7,3,21,0.00
2013-4-25,70.1,57.1,43.3,51.6,34.5,21.7,93,49,21,30.20,29.74,7,2,22,0.01
2013-4-26,60.4,49.3,36.8,36.9,31.0,26.6,74,51,31,30.36,30.20,8,3,14,0.00
2013-4-27,70.3,52.7,35.8,37.4,34.1,30.3,91,54,24,30.35,30.22,6,2,13,0.00
2013-4-28,73.2,55.0,37.5,40.3,34.6,28.5,92,51,22,30.27,30.15,10,2,17,0.00
2013-4-29,72.7,57.8,43.8,46.5,35.0,25.6,83,46,26,30.20,30.11,7,2,17,0.00
2013-4-30,72.1,57.8,45.1,35.0,27.0,18.9,65,34,17,30.30,30.18,7,2,14,0.00
2013-5-1,72.5,55.4,36.8,38.4,31.7,26.1,83,45,20,30.40,30.30,7,2,13,0.00
2013-5-2,81.2,56.4,41.6,45.0,38.2,32.7,86,56,18,30.42,30.27,14,2,26,0.00
2013-5-3,59.3,50.0,40.2,43.4,39.6,35.8,88,69,48,30.47,30.32,10,3,19,0.00
2013-5-4,60.7,49.3,38.0,44.6,35.5,16.7,95,65,20,30.32,30.23,10,3,17,0.00
2013-5-5,62.4,47.8,33.8,41.4,36.6,32.3,96,69,40,30.28,30.18,7,2,12,0.00
2013-5-6,74.2,52.6,33.8,48.7,40.9,32.3,97,70,26,30.23,30.08,7,1,11,0.00
2013-5-7,81.1,63.5,44.5,57.2,49.8,43.2,96,66,29,30.11,30.01,6,2,12,0.00
2013-5-8,73.2,62.4,53.1,61.5,57.1,51.7,96,84,61,30.14,29.99,9,3,17,0.01
2013-5-9,67.8,59.5,56.5,63.1,57.6,55.7,99,94,69,29.98,29.83,6,0,10,0.00
2013-5-10,81.6,66.1,53.1,64.3,55.7,52.6,99,73,38,29.90,29.83,4,1,10,0.00
2013-5-11,70.8,63.9,58.1,61.4,58.3,53.4,96,82,70,29.84,29.63,5,1,16,0.00
2013-5-12,74.6,60.7,46.5,60.3,50.6,30.2,97,73,36,29.74,29.50,5,1,16,0.00
2013-5-13,64.2,49.6,37.3,35.1,30.1,25.2,84,51,25,29.97,29.75,5,1,12,0.00
2013-5-14,63.5,49.7,35.6,35.7,30.8,24.1,86,52,26,30.00,29.92,5,1,16,0.00
2013-5-15,69.9,52.8,35.9,50.9,39.0,28.0,92,65,23,29.99,29.60,5,1,19,0.01
2013-5-16,85.3,67.4,48.5,49.4,40.2,29.9,96,47,16,29.74,29.56,6,2,21,0.00
2013-5-17,72.1,60.1,49.1,43.2,39.4,33.4,77,49,27,30.15,29.75,5,2,19,0.00
2013-5-18,77.6,58.8,41.2,47.9,41.4,33.8,93,59,21,30.25,30.15,4,1,10,0.00
2013-5-19,74.2,56.9,47.4,54.3,49.6,45.4,97,79,39,30.29,30.16,3,0,8,0.01
2013-5-20,84.9,69.3,55.0,65.6,59.9,54.2,99,75,47,30.16,29.85,2,0,9,0.00
2013-5-21,79.2,60.9,50.4,66.2,56.7,48.3,97,87,62,29.96,29.81,6,2,16,0.00
2013-5-22,66.0,55.4,49.4,60.3,53.3,48.4,99,93,80,30.02,29.83,4,1,11,0.00
2013-5-23,75.3,63.0,53.1,68.7,60.3,52.3,99,91,77,29.87,29.73,5,1,16,0.00
2013-5-24,72.7,61.9,47.7,66.8,58.9,46.6,99,90,71,29.77,29.59,3,1,16,0.00
2013-5-25,51.1,46.3,39.9,49.9,45.2,38.3,97,96,93,29.77,29.66,4,1,16,0.00
2013-5-26,59.2,46.9,38.9,43.4,39.0,36.7,95,76,43,30.04,29.66,5,2,17,0.00
2013-5-27,75.1,57.4,38.5,44.9,38.1,30.3,96,57,20,30.11,30.01,4,1,18,0.00
2013-5-28,75.8,58.9,42.6,50.8,44.1,37.8,95,63,27,30.18,30.09,3,1,10,0.00
2013-5-29,69.1,62.0,56.6,63.5,59.2,49.5,98,91,77,30.12,29.92,2,0,6,0.00
2013-5-30,90.5,76.8,60.9,69.7,64.5,60.3,98,70,39,30.02,29.94,3,1,12,0.00
2013-5-31,98.2,80.8,63.9,68.6,64.1,59.1,96,62,29,30.03,29.86,3,0,14,0.00
2013-6-1,95.9,81.5,65.2,68.8,64.1,56.1,92,60,27,29.90,29.78,3,1,14,0.00
2013-6-2,91.6,78.5,68.4,69.5,65.9,59.3,91,68,35,29.81,29.64,6,2,20,0.00
2013-6-3,78.6,68.2,58.9,67.3,62.0,46.0,96,82,55,29.79,29.69,2,0,10,0.00
2013-6-4,73.2,62.4,48.5,48.6,44.7,41.5,81,55,33,30.04,29.77,4,1,12,0.00
2013-6-5,78.5,65.8,48.5,51.8,46.3,40.6,91,54,27,30.14,30.03,2,0,8,0.00
2013-6-6,75.4,64.0,52.6,54.9,50.4,46.1,91,63,38,30.13,30.04,3,0,11,0.00
2013-6-7,58.7,54.8,52.3,55.7,53.4,51.5,98,95,81,30.05,29.78,3,1,7,0.00
2013-6-8,80.1,64.0,52.0,64.8,57.4,51.5,99,82,53,29.93,29.58,2,1,11,0.00
2013-6-9,83.6,69.2,55.0,58.4,55.9,51.7,97,67,34,30.10,29.94,3,1,11,0.00
2013-6-10,68.4,62.0,54.7,59.1,56.5,52.8,97,83,65,30.15,29.97,2,1,10,0.00
2013-6-11,63.1,57.5,54.7,58.4,55.9,54.1,98,94,80,29.97,29.53,3,1,7,0.00
2013-6-12,74.0,63.0,55.4,59.2,54.7,51.8,98,76,51,29.76,29.50,5,1,20,0.00
2013-6-13,66.9,56.8,50.7,57.6,53.3,49.3,97,89,65,29.75,29.64,2,0,6,0.00
2013-6-14,76.5,61.1,51.1,59.5,53.9,50.0,98,80,40,29.71,29.60,2,0,7,0.00
2013-6-15,82.4,67.7,54.2,55.1,48.1,41.1,87,55,25,29.87,29.71,3,1,13,0.00
2013-6-16,79.9,65.9,53.2,60.1,53.7,48.0,90,67,35,29.87,29.64,3,0,11,0.00
2013-6-17,89.0,68.8,57.6,68.4,59.9,55.7,97,77,36,29.84,29.71,3,1,12,0.04
2013-6-18,75.1,62.5,57.2,63.8,59.3,56.4,98,90,62,29.89,29.83,2,0,8,0.00
2013-6-19,78.3,65.1,55.4,58.8,52.5,42.9,98,69,30,30.09,29.86,2,0,7,0.00
2013-6-20,81.2,65.8,49.1,56.1,50.1,43.8,95,62,29,30.20,30.09,2,0,10,0.00
2013-6-21,88.2,72.6,56.0,63.2,56.0,49.5,91,61,27,30.18,30.13,2,0,8,0.00
2013-6-22,85.7,73.1,59.8,64.8,60.6,57.4,95,68,42,30.16,30.04,3,1,13,0.00
2013-6-23,91.8,77.6,63.7,72.1,65.1,57.9,86,67,48,30.09,29.92,3,1,14,0.00
2013-6-24,97.1,80.7,69.3,73.3,68.9,64.0,94,70,42,29.95,29.80,2,0,12,0.00
2013-6-25,94.5,79.7,68.1,72.2,67.7,64.7,93,70,40,29.86,29.65,3,1,10,0.00
2013-6-26,87.6,74.3,68.3,75.9,69.0,66.0,95,84,55,29.79,29.65,2,0,7,0.00
2013-6-27,73.5,65.4,60.7,67.6,63.6,60.1,98,94,77,29.81,29.70,2,0,5,0.00
2013-6-28,83.2,69.2,57.8,73.9,65.8,57.2,99,90,66,29.71,29.42,4,1,13,0.00
2013-6-29,85.5,75.5,70.1,69.8,67.9,65.2,96,79,53,29.65,29.44,3,1,13,0.00
2013-6-30,87.4,76.6,66.4,71.9,68.5,65.2,97,78,52,29.86,29.65,4,1,12,0.00
2013-7-1,82.2,74.0,70.9,74.5,70.9,68.7,98,91,71,30.02,29.87,3,0,8,0.00
2013-7-2,83.0,71.8,60.7,73.4,68.3,59.5,97,89,69,30.16,30.01,4,1,11,0.00
2013-7-3,90.1,75.4,60.5,74.9,67.9,59.4,97,79,55,30.16,30.07,3,0,9,0.00
2013-7-4,95.4,82.6,71.1,75.5,72.2,69.9,97,73,46,30.14,30.02,3,0,8,0.00
2013-7-5,96.3,84.6,74.0,75.8,72.6,71.2,92,69,47,30.09,29.96,2,1,8,0.00
2013-7-6,94.7,82.5,72.1,74.3,70.2,62.5,93,69,44,30.01,29.92,2,0,8,0.00
2013-7-7,93.8,78.6,66.1,77.6,69.6,62.3,93,76,48,29.96,29.84,2,0,10,0.00
2013-7-8,87.2,75.1,65.0,74.7,70.4,63.8,97,86,59,30.01,29.84,5,1,10,0.00
2013-7-9,74.7,68.1,64.2,67.9,65.4,63.3,97,91,75,30.05,29.99,1,0,4,0.00
2013-7-10,84.9,73.1,65.6,75.9,69.8,63.7,97,90,69,30.02,29.73,4,0,10,0.00
2013-7-11,84.1,75.7,70.9,74.3,71.6,67.2,98,88,67,29.87,29.71,2,0,8,0.00
2013-7-12,77.9,70.9,65.6,66.9,59.5,54.8,93,69,46,30.15,29.87,5,1,10,0.00
2013-7-13,78.8,71.0,64.5,70.3,64.4,57.3,94,80,72,30.25,30.15,2,0,6,0.00
2013-7-14,92.5,78.9,68.3,79.3,71.2,66.9,98,80,48,30.25,30.15,2,0,8,0.03
2013-7-15,94.7,81.6,69.9,74.3,71.7,68.7,97,75,48,30.15,30.03,2,0,11,0.00
2013-7-16,96.6,82.0,69.8,71.6,67.8,63.8,86,65,35,30.10,30.05,2,0,12,0.00
2013-7-17,96.8,82.7,69.1,74.7,70.3,65.9,96,69,38,30.12,29.92,2,0,6,0.00
2013-7-18,97.8,82.5,74.0,75.0,71.3,68.2,88,71,40,29.94,29.88,2,0,8,0.00
2013-7-19,99.2,84.6,71.1,76.9,72.4,68.8,96,70,39,29.88,29.64,3,1,13,0.00
2013-7-20,94.3,83.2,72.3,76.1,71.7,62.8,89,69,49,29.74,29.58,3,0,8,0.00
2013-7-21,82.8,73.3,65.0,66.4,63.6,60.8,91,73,55,29.93,29.74,2,0,6,0.00
2013-7-22,83.4,72.2,64.3,69.6,66.3,63.0,97,83,56,29.96,29.83,3,0,6,0.00
2013-7-23,77.6,71.0,67.8,75.1,69.9,65.7,98,96,87,29.83,29.48,4,0,12,2.31
2013-7-24,88.0,76.0,63.5,74.7,66.9,51.9,98,76,50,29.91,29.52,3,0,13,0.00
2013-7-25,63.2,59.6,57.3,58.7,53.5,46.7,98,81,63,30.06,29.91,2,0,10,0.67
2013-7-26,72.7,64.7,58.7,67.9,62.5,58.1,98,93,81,30.02,29.89,2,0,11,0.19
2013-7-27,87.4,72.3,58.3,68.1,62.4,57.2,97,74,42,29.99,29.93,2,0,7,0.00
2013-7-28,83.6,70.9,63.4,70.9,66.0,61.1,97,86,60,29.96,29.91,3,0,6,0.01
2013-7-29,85.3,72.3,65.8,73.0,68.1,64.8,98,88,54,29.98,29.91,3,0,10,0.54
2013-7-30,85.3,71.7,59.0,66.9,60.2,55.0,97,71,38,30.04,29.97,2,0,8,0.01
2013-7-31,85.1,70.9,58.4,64.1,59.6,55.7,96,71,38,30.08,29.98,2,0,5,0.00
2013-8-1,82.6,69.2,59.6,66.4,62.9,58.5,97,82,51,29.99,29.82,4,0,13,0.13
2013-8-2,85.3,71.2,62.7,69.4,62.5,-99.9,98,79,45,29.81,29.73,2,0,8,0.95
2013-8-3,80.7,68.8,60.7,65.8,62.3,58.7,98,82,51,29.80,29.72,2,0,8,0.01
2013-8-4,61.6,61.5,61.3,58.3,58.1,57.7,89,89,88,29.77,29.77,0,0,0,0.00
2013-8-8,80.9,72.2,64.2,70.8,65.7,56.4,92,80,69,30.06,29.94,3,1,13,0.00
2013-8-9,74.4,72.0,70.6,73.5,70.4,68.2,98,95,90,29.96,29.68,4,1,16,0.90
2013-8-10,86.1,73.0,61.6,70.0,62.6,54.0,98,74,37,29.95,29.73,3,0,13,0.01
2013-8-11,83.0,67.6,52.5,60.4,55.2,50.7,97,69,34,30.02,29.94,2,0,7,0.00
2013-8-12,85.5,70.3,57.5,61.5,58.2,53.1,96,70,35,29.96,29.86,2,0,7,0.00
2013-8-13,73.3,67.4,63.2,68.5,63.9,60.2,96,89,72,29.86,29.63,2,0,7,0.05
2013-8-14,77.0,66.7,57.3,62.8,54.7,50.3,97,68,40,29.90,29.60,4,1,14,0.00
2013-8-15,80.9,62.9,52.6,56.2,51.9,47.7,94,71,32,30.05,29.90,3,0,11,0.00
2013-8-16,82.4,66.7,54.8,59.6,55.0,50.5,91,69,34,30.13,30.04,2,0,7,0.00
2013-8-17,84.3,67.3,54.1,63.0,57.3,52.4,95,73,38,30.22,30.14,2,0,6,0.00
2013-8-18,81.1,68.4,56.5,64.5,60.3,55.4,98,77,49,30.22,30.02,1,0,6,0.00
2013-8-19,85.3,71.4,58.6,65.6,61.5,57.5,96,74,47,30.02,29.90,1,0,6,0.00
2013-8-20,87.8,74.4,61.8,66.5,62.1,56.8,92,69,36,30.03,29.92,1,0,5,0.00
2013-8-21,91.0,75.3,60.4,67.4,63.6,59.0,96,71,40,30.08,29.96,2,0,10,0.00
2013-8-22,92.3,75.3,63.4,70.8,66.2,61.7,96,76,41,29.97,29.75,3,0,12,0.00
2013-8-23,83.8,71.1,61.6,68.5,54.6,-99.9,95,63,34,30.07,29.75,3,1,12,0.00
2013-8-24,81.4,65.2,53.6,54.9,47.8,-99.9,87,59,26,30.27,30.07,2,0,6,0.00
2013-8-25,86.5,68.4,51.4,58.4,53.0,47.3,96,63,28,30.31,30.12,3,0,8,0.00
2013-8-26,85.3,71.3,62.6,67.6,61.5,-99.9,90,73,50,30.12,29.81,4,0,7,0.02
2013-8-27,88.2,75.3,66.6,68.9,66.4,63.9,96,76,45,29.84,29.77,2,0,6,0.00
2013-8-28,87.4,72.8,61.6,68.7,64.6,60.4,97,78,47,29.92,29.79,2,0,7,0.00
2013-8-29,66.1,64.0,61.2,64.3,61.1,57.7,96,90,85,30.02,29.89,3,1,8,0.03
2013-8-30,84.5,70.4,57.3,68.2,62.8,55.9,97,79,52,29.98,29.76,1,0,6,0.00
2013-8-31,79.9,73.1,66.8,74.0,70.0,65.3,98,90,77,29.77,29.72,2,0,8,0.34
2013-9-1,85.3,74.7,69.9,73.2,70.6,67.5,96,88,64,29.82,29.72,3,0,11,0.00
2013-9-2,77.4,73.6,71.3,74.8,71.7,70.1,97,94,87,29.81,29.65,1,0,10,0.15
2013-9-3,82.2,72.7,60.9,71.1,66.9,57.3,98,83,59,29.75,29.63,2,0,9,0.00
2013-9-4,84.0,68.8,56.5,59.7,56.7,54.1,96,69,38,29.86,29.74,2,0,7,0.00
2013-9-5,72.1,62.4,50.5,61.7,51.9,41.5,96,72,36,30.09,29.80,2,0,10,0.06
2013-9-6,73.3,56.9,42.6,48.3,42.8,35.3,94,64,28,30.19,30.03,1,0,5,0.00
2013-9-7,83.4,63.9,46.4,59.9,51.2,44.3,94,68,31,30.03,29.79,1,0,6,0.01
2013-9-8,78.3,63.8,48.9,61.3,51.9,39.5,93,68,35,30.04,29.69,3,1,16,0.00
2013-9-9,74.6,57.4,42.5,49.6,44.2,38.6,92,65,28,30.18,30.04,2,0,11,0.00
2013-9-10,74.4,64.8,53.3,70.5,61.3,49.2,97,88,81,30.09,29.96,3,0,11,0.11
2013-9-11,97.1,81.0,67.3,76.4,70.8,64.8,98,75,43,30.00,29.87,3,0,13,0.01
2013-9-12,87.4,76.7,67.1,73.5,68.7,65.2,97,78,57,29.89,29.60,4,1,17,1.43
2013-9-13,81.4,67.6,58.4,71.1,64.1,53.6,99,89,58,29.70,29.51,3,0,14,0.20
2013-9-14,69.4,60.3,50.8,55.5,52.6,48.8,93,77,55,30.00,29.70,1,0,11,0.00
2013-9-15,75.3,59.0,46.5,54.3,49.2,45.4,98,74,38,30.10,29.99,0,0,6,0.00
2013-9-16,70.3,57.1,46.7,56.3,49.9,36.6,92,78,56,30.20,29.95,2,0,13,0.01
2013-9-17,67.6,51.0,38.0,46.6,39.2,35.0,92,67,35,30.38,30.21,2,0,10,0.00
2013-9-18,76.7,57.4,40.5,50.3,44.5,39.4,98,69,27,30.27,30.07,0,0,3,0.00
2013-9-19,82.2,62.3,45.5,57.4,50.8,44.2,97,71,29,30.07,29.97,0,0,5,0.00
2013-9-20,84.3,63.6,48.5,59.8,53.2,47.4,99,73,35,30.03,29.93,0,0,7,0.00
2013-9-21,74.4,63.3,51.9,64.9,58.2,50.6,99,85,62,29.96,29.66,4,1,16,0.00
2013-9-22,74.7,64.0,50.5,66.4,56.7,44.8,98,79,47,29.78,29.53,5,1,18,0.76
2013-9-23,66.4,52.9,44.1,45.9,41.8,38.9,86,68,43,29.95,29.78,2,0,18,0.00
2013-9-24,69.8,53.4,39.6,45.7,41.7,37.9,95,68,38,29.93,29.76,1,0,10,0.00
2013-9-25,71.1,55.2,44.5,53.8,47.1,42.3,94,76,48,29.92,29.82,0,0,6,0.00
2013-9-26,70.9,58.4,52.3,51.2,48.8,45.3,90,72,42,30.07,29.92,0,0,5,0.00
2013-9-27,66.3,58.0,50.5,54.7,51.4,49.4,96,79,61,30.20,30.07,1,0,5,0.00
2013-9-28,77.6,59.3,49.2,56.9,51.3,48.0,97,78,41,30.27,30.20,0,0,6,0.00
2013-9-29,72.1,54.3,46.2,54.3,45.9,-99.9,99,80,31,30.21,30.07,0,0,3,0.00
2013-9-30,74.7,52.8,45.8,52.6,40.4,-99.9,98,76,41,30.07,29.91,0,0,2,0.01
2013-10-1,81.1,61.4,45.7,56.7,51.3,44.6,98,75,33,29.91,29.79,0,0,6,0.00
2013-10-2,83.8,66.7,53.9,61.7,57.2,52.7,96,74,41,29.88,29.77,1,0,10,0.00
2013-10-3,80.1,63.7,51.1,56.4,52.6,46.6,97,72,31,30.02,29.89,2,0,5,0.00
2013-10-4,61.3,56.0,50.7,59.0,53.8,48.0,97,92,86,30.04,29.97,0,0,1,0.40
2013-10-5,71.6,60.9,54.8,60.3,56.8,54.0,98,87,61,30.07,30.00,0,0,2,0.01
2013-10-6,58.7,55.1,52.3,56.4,54.2,51.2,98,97,90,30.19,30.06,3,0,7,0.41
2013-10-7,77.2,63.8,55.1,71.5,61.1,54.5,99,92,69,30.08,29.73,6,1,21,0.19
2013-10-8,69.8,56.0,44.5,56.6,45.9,39.2,96,73,34,30.32,29.84,3,0,16,0.01
2013-10-9,65.5,50.0,39.5,46.3,42.5,38.0,96,78,45,30.43,30.32,3,1,8,0.00
2013-10-10,62.4,50.8,41.6,52.0,46.7,40.8,98,87,63,30.31,30.14,2,0,5,0.00
2013-10-11,74.9,57.5,47.0,54.6,46.2,33.0,97,72,23,30.13,30.04,3,0,7,0.00
2013-10-12,56.5,52.7,47.7,54.3,50.8,46.6,97,93,87,30.34,30.09,6,1,10,0.00
2013-10-13,59.5,50.6,41.2,53.1,46.0,39.9,98,85,64,30.40,30.33,3,0,7,0.01
2013-10-14,68.1,50.4,34.7,51.6,41.1,33.7,99,75,36,30.35,30.19,2,0,6,0.00
2013-10-15,65.8,55.7,49.1,53.9,50.3,45.8,96,83,62,30.21,30.12,3,0,6,0.00
2013-10-16,62.6,54.9,50.5,55.8,51.5,49.6,99,89,64,30.12,29.85,2,0,6,0.00
2013-10-17,76.3,60.2,48.0,61.2,53.4,47.2,99,81,46,29.86,29.65,3,0,11,0.01
2013-10-18,72.3,60.5,47.3,60.1,50.8,41.2,98,74,38,29.84,29.54,5,1,20,0.08
2013-10-19,71.5,55.1,40.6,46.4,41.9,38.4,94,65,33,29.91,29.68,2,0,8,0.00
2013-10-20,66.6,53.6,41.3,48.6,39.5,31.8,96,63,31,29.95,29.62,4,1,12,0.00
2013-10-21,70.8,50.0,36.0,42.0,38.1,33.8,96,68,31,30.06,29.92,2,0,7,0.00
2013-10-22,66.6,52.4,42.9,51.0,44.2,36.3,97,75,54,29.92,29.64,4,1,12,0.00
2013-10-23,55.1,45.4,35.2,37.0,34.4,31.3,93,67,44,29.73,29.53,2,0,5,0.00
2013-10-24,57.5,45.4,35.0,35.6,29.9,23.4,88,58,30,29.82,29.58,4,1,14,0.00
2013-10-25,56.0,41.6,32.1,35.0,29.3,25.3,94,65,35,30.09,29.82,4,1,12,0.00
2013-10-26,58.7,43.1,30.0,34.4,28.9,22.5,94,62,27,30.09,29.81,5,1,21,0.00
2013-10-27,58.3,45.3,38.9,39.1,26.9,-99.9,86,58,37,29.99,29.73,5,1,11,0.00
2013-10-28,62.3,44.4,32.4,34.2,30.1,24.3,90,61,32,30.29,29.99,4,1,14,0.00
2013-10-29,54.2,38.2,28.4,26.7,22.5,16.0,85,57,24,30.40,30.29,3,0,7,0.00
2013-10-30,50.4,38.5,30.0,40.6,33.6,26.7,94,83,62,30.31,30.13,2,0,3,0.02
2013-10-31,59.0,45.1,31.6,58.1,43.7,30.3,98,95,87,30.18,29.73,3,0,12,0.22
2013-11-1,68.4,62.7,53.5,63.1,56.6,50.9,97,81,63,29.71,29.37,7,3,26,0.03
2013-11-2,72.8,56.1,44.1,51.1,43.9,38.2,95,69,29,29.66,29.52,3,0,8,0.00
2013-11-3,49.8,40.5,29.5,45.5,25.3,11.8,87,57,29,30.36,29.66,3,1,13,0.00
2013-11-4,46.8,32.8,25.3,20.7,16.7,10.9,80,54,25,30.65,30.37,5,1,10,0.00
2013-11-5,52.5,38.4,24.8,32.7,25.8,19.5,86,63,37,30.67,30.44,5,1,11,0.00
2013-11-6,62.6,49.7,37.9,47.6,39.9,31.9,85,70,46,30.44,29.96,4,1,17,0.00
2013-11-7,64.0,52.8,38.5,56.3,48.1,28.5,94,84,67,29.96,29.60,4,1,13,0.11
2013-11-8,52.8,38.7,29.1,33.6,26.3,20.3,87,62,39,30.02,29.74,5,1,16,0.01
2013-11-9,48.8,38.7,28.8,27.4,23.3,18.3,76,55,30,30.15,29.96,4,1,10,0.00
2013-11-10,57.8,43.9,37.5,45.4,34.6,27.3,97,71,52,29.96,29.67,4,1,12,0.05
2013-11-11,56.0,45.6,36.6,30.5,26.7,23.2,66,49,29,30.03,29.77,6,1,14,0.00
2013-11-12,47.3,34.2,24.8,38.6,23.6,14.2,92,66,50,30.12,29.81,4,1,16,0.09
2013-11-13,41.8,28.7,20.5,17.0,13.6,8.6,79,55,31,30.23,30.09,4,1,12,0.01
2013-11-14,54.7,38.9,26.0,24.7,20.0,14.8,66,49,25,30.09,29.96,4,1,13,0.00
2013-11-15,62.7,44.9,31.2,28.9,19.8,14.0,63,40,15,30.12,30.02,5,1,12,0.00
2013-11-16,65.0,46.5,37.0,33.3,27.5,22.0,72,51,20,30.25,30.10,2,0,6,0.00
2013-11-17,48.5,41.0,31.0,44.3,35.9,26.6,97,82,69,30.25,29.79,1,0,3,0.02
2013-11-18,68.9,56.2,45.2,60.3,45.2,29.9,98,70,35,29.77,29.45,7,2,18,0.23
2013-11-19,47.0,39.1,29.0,29.8,20.8,14.8,58,48,31,30.20,29.58,7,3,22,0.00
2013-11-20,45.8,32.6,23.8,16.4,13.6,9.0,72,47,25,30.56,30.21,5,2,19,0.00
2013-11-21,51.3,35.3,19.7,26.6,19.3,14.5,83,56,24,30.58,30.30,3,0,10,0.00
2013-11-22,44.6,41.3,36.3,43.8,38.8,26.7,98,91,67,30.30,29.74,0,0,3,0.17
2013-11-23,49.2,38.9,27.3,43.8,26.4,10.2,98,64,30,29.84,29.71,6,2,18,0.00
2013-11-24,30.4,24.1,18.4,14.6,2.1,-7.0,65,39,24,30.12,29.72,11,5,32,0.00
2013-11-25,36.3,24.9,13.5,14.0,1.1,-10.0,53,37,13,30.30,30.12,6,2,20,0.00
2013-11-26,38.6,33.8,30.0,32.5,21.8,12.7,94,63,45,30.28,30.00,3,0,11,0.13
2013-11-27,61.0,48.4,33.4,60.3,47.3,32.1,98,96,84,29.98,29.14,10,3,30,1.36
2013-11-28,38.0,30.3,20.0,32.5,16.3,3.2,86,58,32,30.36,29.35,9,3,26,0.00
2013-11-29,38.5,25.8,17.7,17.3,9.2,-3.6,80,52,27,30.67,30.36,4,1,10,0.00
2013-11-30,33.4,23.8,13.1,19.5,12.0,6.3,78,61,37,30.74,30.36,4,1,11,0.00
2013-12-1,35.0,32.3,28.8,34.2,29.2,19.6,97,88,68,30.36,29.95,2,0,8,0.25
2013-12-2,38.8,36.5,34.9,38.0,35.6,34.1,98,97,95,29.95,29.86,1,0,7,0.00
2013-12-3,50.1,38.3,29.7,37.1,33.2,27.7,97,84,53,29.88,29.78,4,0,10,0.01
2013-12-4,44.8,34.1,26.9,30.8,27.0,25.0,96,77,46,30.13,29.88,5,0,11,0.00
2013-12-5,41.2,36.3,28.5,40.7,33.9,26.1,98,91,77,30.14,29.84,2,0,6,0.00
2013-12-6,53.8,46.1,33.2,53.5,42.3,26.1,99,88,48,30.08,29.78,2,0,10,0.02
2013-12-7,44.6,32.6,24.4,37.4,27.1,17.5,97,81,58,30.38,30.01,5,1,13,0.00
2013-12-8,31.2,26.1,19.1,19.8,16.6,13.7,86,68,53,30.53,30.38,2,0,6,0.00
2013-12-9,34.4,29.8,23.9,33.6,27.4,14.2,97,91,58,30.43,29.82,2,0,7,0.00
2013-12-10,34.1,28.9,22.4,31.5,22.0,-99.9,97,85,59,29.92,29.71,3,0,10,0.00
2013-12-11,35.0,24.7,17.3,20.1,16.0,13.5,86,70,46,30.13,29.92,5,1,13,0.00
2013-12-12,29.7,19.8,11.9,16.9,6.6,0.1,82,59,31,30.20,29.99,5,1,25,0.00
2013-12-13,30.3,19.9,11.9,18.3,9.9,-1.2,79,65,48,30.33,29.92,4,1,12,0.00
2013-12-14,16.4,12.2,8.1,13.2,1.6,-5.9,89,63,43,30.56,30.12,4,2,12,0.00
2013-12-15,27.8,21.5,15.9,25.5,19.1,13.2,93,91,83,30.11,29.38,5,2,17,0.00
2013-12-16,31.2,22.4,13.3,20.0,10.3,-99.9,88,63,36,30.13,29.67,7,2,20,0.00
2013-12-17,16.4,10.6,1.3,14.0,4.4,-4.5,90,76,53,30.23,29.91,4,1,13,0.00
2013-12-18,35.5,24.0,13.5,24.9,16.6,-99.9,89,77,55,29.99,29.81,6,1,13,0.00
2013-12-19,41.2,32.2,24.7,25.1,22.3,18.9,80,67,49,30.04,29.88,5,1,13,0.00
2013-12-20,52.3,40.3,30.9,33.5,29.5,24.0,80,66,48,30.04,29.83,5,1,12,0.00
2013-12-21,56.9,47.2,38.9,45.8,39.6,31.4,89,75,59,29.87,29.77,5,1,12,0.00
2013-12-22,51.1,38.6,32.2,50.0,37.8,31.7,98,97,88,29.96,29.73,7,2,11,0.00
2013-12-23,36.5,32.5,30.6,36.2,32.2,30.1,99,99,98,30.03,29.91,4,0,9,0.00
2013-12-24,37.3,31.3,23.9,35.5,21.4,11.3,99,68,43,30.13,29.98,3,1,13,0.00
2013-12-25,24.1,18.7,12.1,12.5,3.6,-1.6,72,52,33,30.48,30.13,5,2,17,0.00
2013-12-26,29.4,21.8,14.3,25.2,16.6,6.3,92,80,66,30.44,30.02,1,0,3,0.00
2013-12-27,37.5,26.2,18.1,22.9,19.1,15.4,90,75,54,30.19,30.11,3,0,10,0.00
2013-12-28,46.1,31.6,20.8,28.0,23.4,17.6,91,73,47,30.14,29.91,4,0,12,0.00
2013-12-29,40.6,34.7,29.4,36.4,30.2,24.3,98,84,63,29.95,29.37,6,1,14,0.00
2013-12-30,44.2,32.0,15.2,39.8,23.0,5.9,98,72,39,30.10,29.44,6,2,13,0.00
2013-12-31,27.0,17.5,10.7,11.9,3.8,-3.9,83,56,34,30.10,29.95,3,0,8,0.00
2014-1-1,30.3,20.1,11.9,12.0,7.2,3.0,77,58,36,30.31,30.11,6,1,13,0.00
2014-1-2,18.6,9.3,-0.2,13.7,5.1,-4.9,86,83,73,30.30,29.83,8,4,17,0.00